createdAt,value
2023-11-25T00:00:29.967Z,0.73
2023-11-25T00:01:30.123Z,0.72
2023-11-25T00:02:29.968Z,0.71
2023-11-25T00:03:29.981Z,0.71
2023-11-25T00:04:29.958Z,0.71
2023-11-25T00:05:29.935Z,0.71
2023-11-25T00:06:29.938Z,0.72
2023-11-25T00:07:29.964Z,0.72
2023-11-25T00:08:29.937Z,0.72
2023-11-25T00:09:29.942Z,0.72
2023-11-25T00:10:29.951Z,0.72
2023-11-25T00:11:30.327Z,0.71
2023-11-25T00:12:29.938Z,0.72
2023-11-25T00:13:29.981Z,0.73
2023-11-25T00:14:29.987Z,0.74
2023-11-25T00:15:29.955Z,0.75
2023-11-25T00:16:29.994Z,0.75
2023-11-25T00:17:30.209Z,0.76
2023-11-25T00:18:29.943Z,0.76
2023-11-25T00:19:29.997Z,0.75
2023-11-25T00:20:29.940Z,0.75
2023-11-25T00:21:29.941Z,0.75
2023-11-25T00:22:29.964Z,0.74
2023-11-25T00:23:29.946Z,0.73
2023-11-25T00:24:29.938Z,0.71
2023-11-25T00:25:29.964Z,0.7
2023-11-25T00:26:29.944Z,0.7
2023-11-25T00:27:29.938Z,0.71
2023-11-25T00:28:29.972Z,0.71
2023-11-25T00:29:29.944Z,0.71
2023-11-25T00:30:29.939Z,0.71
2023-11-25T00:31:29.970Z,0.71
2023-11-25T00:32:29.948Z,0.71
2023-11-25T00:33:29.991Z,0.72
2023-11-25T00:34:30.040Z,0.73
2023-11-25T00:35:29.948Z,0.74
2023-11-25T00:36:29.953Z,0.76
2023-11-25T00:37:29.993Z,0.77
2023-11-25T00:38:29.950Z,0.76
2023-11-25T00:39:29.942Z,0.76
2023-11-25T00:40:30.120Z,0.75
2023-11-25T00:41:29.948Z,0.73
2023-11-25T00:42:29.947Z,0.72
2023-11-25T00:43:29.979Z,0.72
2023-11-25T00:44:29.952Z,0.72
2023-11-25T00:45:29.960Z,0.71
2023-11-25T00:46:30.045Z,0.72
2023-11-25T00:47:30.023Z,0.71
2023-11-25T00:48:29.965Z,0.71
2023-11-25T00:49:29.969Z,0.72
2023-11-25T00:50:29.944Z,0.71
2023-11-25T00:51:29.944Z,0.71
2023-11-25T00:52:29.981Z,0.7
2023-11-25T00:53:29.946Z,0.7
2023-11-25T00:54:29.943Z,0.69
2023-11-25T00:55:29.956Z,0.69
2023-11-25T00:56:29.948Z,0.68
2023-11-25T00:57:29.943Z,0.68
2023-11-25T00:58:29.993Z,0.68
2023-11-25T00:59:29.951Z,0.68
2023-11-25T01:00:29.942Z,0.67
2023-11-25T01:01:30.009Z,0.67
2023-11-25T01:02:30.089Z,0.66
2023-11-25T01:03:30.069Z,0.65
2023-11-25T01:04:30.034Z,0.63
2023-11-25T01:05:29.946Z,0.6
2023-11-25T01:06:29.950Z,0.57
2023-11-25T01:07:29.969Z,0.54
2023-11-25T01:08:29.973Z,0.51
2023-11-25T01:09:29.950Z,0.49
2023-11-25T01:10:29.985Z,0.47
2023-11-25T01:11:29.950Z,0.46
2023-11-25T01:12:29.955Z,0.46
2023-11-25T01:13:30.002Z,0.47
2023-11-25T01:14:29.957Z,0.46
2023-11-25T01:15:29.949Z,0.46
2023-11-25T01:16:30.065Z,0.46
2023-11-25T01:17:30.013Z,0.45
2023-11-25T01:18:29.950Z,0.45
2023-11-25T01:19:30.082Z,0.43
2023-11-25T01:20:29.961Z,0.42
2023-11-25T01:21:29.956Z,0.42
2023-11-25T01:22:30.009Z,0.41
2023-11-25T01:23:29.956Z,0.39
2023-11-25T01:24:29.950Z,0.39
2023-11-25T01:25:29.972Z,0.4
2023-11-25T01:26:29.954Z,0.39
2023-11-25T01:27:29.952Z,0.38
2023-11-25T01:28:29.993Z,0.36
2023-11-25T01:29:29.961Z,0.36
2023-11-25T01:30:29.964Z,0.38
2023-11-25T01:31:30.012Z,0.4
2023-11-25T01:32:30.010Z,0.42
2023-11-25T01:33:29.956Z,0.43
2023-11-25T01:34:29.998Z,0.44
2023-11-25T01:35:29.955Z,0.44
2023-11-25T01:36:29.957Z,0.44
2023-11-25T01:37:30.030Z,0.43
2023-11-25T01:38:29.971Z,0.43
2023-11-25T01:39:29.962Z,0.44
2023-11-25T01:40:29.978Z,0.44
2023-11-25T01:41:29.957Z,0.43
2023-11-25T01:42:29.963Z,0.4
2023-11-25T01:43:29.981Z,0.38
2023-11-25T01:44:29.970Z,0.36
2023-11-25T01:45:29.997Z,0.33
2023-11-25T01:46:29.993Z,0.31
2023-11-25T01:47:29.960Z,0.29
2023-11-25T01:48:29.956Z,0.27
2023-11-25T01:49:29.997Z,0.26
2023-11-25T01:50:29.958Z,0.27
2023-11-25T01:51:29.962Z,0.26
2023-11-25T01:52:30.056Z,0.24
2023-11-25T01:53:29.959Z,0.21
2023-11-25T01:54:29.967Z,0.17
2023-11-25T01:55:29.992Z,0.17
2023-11-25T01:56:29.968Z,0.17
2023-11-25T01:57:29.967Z,0.15
2023-11-25T01:58:30.028Z,0.13
2023-11-25T01:59:29.976Z,0.11
2023-11-25T02:00:30.042Z,0.1
2023-11-25T02:01:30.218Z,0.09
2023-11-25T02:02:30.204Z,0.09
2023-11-25T02:03:29.970Z,0.09
2023-11-25T02:04:30.019Z,0.1
2023-11-25T02:05:30.027Z,0.09
2023-11-25T02:06:29.969Z,0.08
2023-11-25T02:07:30.001Z,0.07
2023-11-25T02:08:30.007Z,0.07
2023-11-25T02:09:29.972Z,0.09
2023-11-25T02:10:29.999Z,0.1
2023-11-25T02:11:29.973Z,0.13
2023-11-25T02:12:29.990Z,0.14
2023-11-25T02:13:30.006Z,0.15
2023-11-25T02:14:29.972Z,0.15
2023-11-25T02:15:29.968Z,0.15
2023-11-25T02:16:30.029Z,0.14
2023-11-25T02:17:30.079Z,0.12
2023-11-25T02:18:30.016Z,0.11
2023-11-25T02:19:30.612Z,0.1
2023-11-25T02:20:29.965Z,0.08
2023-11-25T02:21:29.975Z,0.05
2023-11-25T02:22:30.001Z,0.03
2023-11-25T02:23:29.967Z,0.01
2023-11-25T02:24:29.967Z,0
2023-11-25T02:25:29.992Z,0
2023-11-25T02:26:29.966Z,0.01
2023-11-25T02:27:29.990Z,0.02
2023-11-25T02:28:29.988Z,0.01
2023-11-25T02:29:29.967Z,-0.01
2023-11-25T02:30:29.970Z,-0.02
2023-11-25T02:31:30.092Z,-0.04
2023-11-25T02:32:30.072Z,-0.05
2023-11-25T02:33:29.966Z,-0.07
2023-11-25T02:34:30.012Z,-0.08
2023-11-25T02:35:29.971Z,-0.1
2023-11-25T02:36:29.971Z,-0.11
2023-11-25T02:37:29.983Z,-0.12
2023-11-25T02:38:29.974Z,-0.13
2023-11-25T02:39:29.993Z,-0.14
2023-11-25T02:40:30.000Z,-0.16
2023-11-25T02:41:29.987Z,-0.18
2023-11-25T02:42:29.971Z,-0.19
2023-11-25T02:43:30.010Z,-0.2
2023-11-25T02:44:29.990Z,-0.22
2023-11-25T02:45:29.971Z,-0.27
2023-11-25T02:46:30.046Z,-0.3
2023-11-25T02:47:30.035Z,-0.3
2023-11-25T02:48:29.994Z,-0.31
2023-11-25T02:49:30.001Z,-0.35
2023-11-25T02:50:29.971Z,-0.37
2023-11-25T02:51:29.970Z,-0.38
2023-11-25T02:52:30.014Z,-0.39
2023-11-25T02:53:29.973Z,-0.39
2023-11-25T02:54:29.971Z,-0.39
2023-11-25T02:55:30.004Z,-0.4
2023-11-25T02:56:29.984Z,-0.42
2023-11-25T02:57:29.993Z,-0.43
2023-11-25T02:58:30.031Z,-0.45
2023-11-25T02:59:29.996Z,-0.46
2023-11-25T03:00:29.973Z,-0.44
2023-11-25T03:01:30.106Z,-0.43
2023-11-25T03:02:30.214Z,-0.44
2023-11-25T03:03:29.998Z,-0.45
2023-11-25T03:04:29.999Z,-0.47
2023-11-25T03:05:29.986Z,-0.5
2023-11-25T03:06:29.974Z,-0.52
2023-11-25T03:07:30.018Z,-0.53
2023-11-25T03:08:29.979Z,-0.54
2023-11-25T03:09:29.982Z,-0.55
2023-11-25T03:10:30.001Z,-0.54
2023-11-25T03:11:29.985Z,-0.55
2023-11-25T03:12:29.974Z,-0.57
2023-11-25T03:13:30.020Z,-0.61
2023-11-25T03:14:30.020Z,-0.65
2023-11-25T03:15:29.978Z,-0.67
2023-11-25T03:16:30.097Z,-0.66
2023-11-25T03:17:30.019Z,-0.65
2023-11-25T03:18:29.978Z,-0.63
2023-11-25T03:19:29.998Z,-0.62
2023-11-25T03:20:29.981Z,-0.62
2023-11-25T03:21:29.984Z,-0.62
2023-11-25T03:22:29.998Z,-0.61
2023-11-25T03:23:29.981Z,-0.61
2023-11-25T03:24:29.983Z,-0.62
2023-11-25T03:25:30.062Z,-0.65
2023-11-25T03:26:29.982Z,-0.66
2023-11-25T03:27:29.980Z,-0.68
2023-11-25T03:28:30.045Z,-0.69
2023-11-25T03:29:29.980Z,-0.69
2023-11-25T03:30:29.980Z,-0.7
2023-11-25T03:31:30.072Z,-0.7
2023-11-25T03:32:30.036Z,-0.71
2023-11-25T03:33:29.983Z,-0.71
2023-11-25T03:34:29.998Z,-0.71
2023-11-25T03:35:30.025Z,-0.7
2023-11-25T03:36:30.006Z,-0.69
2023-11-25T03:37:30.125Z,-0.69
2023-11-25T03:38:29.999Z,-0.69
2023-11-25T03:39:29.989Z,-0.69
2023-11-25T03:40:30.058Z,-0.71
2023-11-25T03:41:29.983Z,-0.72
2023-11-25T03:42:29.985Z,-0.73
2023-11-25T03:43:30.008Z,-0.75
2023-11-25T03:44:29.985Z,-0.79
2023-11-25T03:45:30.009Z,-0.82
2023-11-25T03:46:30.037Z,-0.83
2023-11-25T03:47:30.066Z,-0.83
2023-11-25T03:48:29.990Z,-0.84
2023-11-25T03:49:30.008Z,-0.85
2023-11-25T03:50:29.991Z,-0.85
2023-11-25T03:51:29.986Z,-0.86
2023-11-25T03:52:30.021Z,-0.88
2023-11-25T03:53:29.984Z,-0.9
2023-11-25T03:54:29.989Z,-0.9
2023-11-25T03:55:30.049Z,-0.87
2023-11-25T03:56:29.990Z,-0.83
2023-11-25T03:57:29.991Z,-0.8
2023-11-25T03:58:30.010Z,-0.78
2023-11-25T03:59:29.992Z,-0.75
2023-11-25T04:00:29.989Z,-0.72
2023-11-25T04:01:30.061Z,-0.7
2023-11-25T04:02:30.088Z,-0.7
2023-11-25T04:03:30.010Z,-0.71
2023-11-25T04:04:30.108Z,-0.7
2023-11-25T04:05:29.992Z,-0.7
2023-11-25T04:06:29.999Z,-0.7
2023-11-25T04:07:30.022Z,-0.69
2023-11-25T04:08:29.988Z,-0.7
2023-11-25T04:09:30.001Z,-0.72
2023-11-25T04:10:30.012Z,-0.75
2023-11-25T04:11:29.993Z,-0.77
2023-11-25T04:12:30.016Z,-0.8
2023-11-25T04:13:30.083Z,-0.82
2023-11-25T04:14:29.993Z,-0.82
2023-11-25T04:15:29.988Z,-0.83
2023-11-25T04:16:30.071Z,-0.85
2023-11-25T04:17:30.070Z,-0.89
2023-11-25T04:18:30.002Z,-0.91
2023-11-25T04:19:30.017Z,-0.91
2023-11-25T04:20:31.056Z,-0.9
2023-11-25T04:21:29.993Z,-0.91
2023-11-25T04:22:30.007Z,-0.95
2023-11-25T04:23:29.996Z,-0.99
2023-11-25T04:24:32.068Z,-1.01
2023-11-25T04:25:31.139Z,-1.03
2023-11-25T04:26:29.992Z,-1.03
2023-11-25T04:27:30.000Z,-1.02
2023-11-25T04:28:30.027Z,-1
2023-11-25T04:29:29.992Z,-1
2023-11-25T04:30:29.993Z,-1.03
2023-11-25T04:31:30.075Z,-1.07
2023-11-25T04:32:30.066Z,-1.09
2023-11-25T04:33:29.994Z,-1.1
2023-11-25T04:34:30.013Z,-1.12
2023-11-25T04:35:29.991Z,-1.11
2023-11-25T04:36:29.996Z,-1.09
2023-11-25T04:37:30.024Z,-1.05
2023-11-25T04:38:29.998Z,-1.01
2023-11-25T04:39:30.003Z,-0.98
2023-11-25T04:40:30.031Z,-0.95
2023-11-25T04:41:30.040Z,-0.95
2023-11-25T04:42:30.002Z,-0.96
2023-11-25T04:43:30.046Z,-0.98
2023-11-25T04:44:29.996Z,-1.01
2023-11-25T04:45:29.995Z,-1.03
2023-11-25T04:46:30.048Z,-1.05
2023-11-25T04:47:30.056Z,-1.07
2023-11-25T04:48:30.032Z,-1.11
2023-11-25T04:49:30.027Z,-1.13
2023-11-25T04:50:30.002Z,-1.13
2023-11-25T04:51:30.004Z,-1.12
2023-11-25T04:52:30.003Z,-1.11
2023-11-25T04:53:30.001Z,-1.12
2023-11-25T04:54:30.007Z,-1.13
2023-11-25T04:55:30.159Z,-1.11
2023-11-25T04:56:30.001Z,-1.08
2023-11-25T04:57:30.006Z,-1.05
2023-11-25T04:58:30.020Z,-1.03
2023-11-25T04:59:29.999Z,-1.01
2023-11-25T05:00:30.014Z,-0.99
2023-11-25T05:01:30.084Z,-0.98
2023-11-25T05:02:30.087Z,-0.97
2023-11-25T05:03:30.041Z,-0.96
2023-11-25T05:04:30.044Z,-0.98
2023-11-25T05:05:30.002Z,-1.01
2023-11-25T05:06:30.015Z,-1.02
2023-11-25T05:07:30.107Z,-1.02
2023-11-25T05:08:30.017Z,-1.01
2023-11-25T05:09:30.029Z,-0.99
2023-11-25T05:10:30.090Z,-0.99
2023-11-25T05:11:30.010Z,-0.99
2023-11-25T05:12:30.010Z,-0.98
2023-11-25T05:13:30.073Z,-0.98
2023-11-25T05:14:30.008Z,-0.97
2023-11-25T05:15:30.014Z,-0.97
2023-11-25T05:16:30.065Z,-0.97
2023-11-25T05:17:30.194Z,-0.96
2023-11-25T05:18:30.008Z,-0.95
2023-11-25T05:19:30.020Z,-0.94
2023-11-25T05:20:30.041Z,-0.92
2023-11-25T05:21:30.008Z,-0.91
2023-11-25T05:22:30.370Z,-0.89
2023-11-25T05:23:30.006Z,-0.87
2023-11-25T05:24:30.012Z,-0.84
2023-11-25T05:25:30.068Z,-0.83
2023-11-25T05:26:30.031Z,-0.82
2023-11-25T05:27:30.020Z,-0.81
2023-11-25T05:28:30.057Z,-0.8
2023-11-25T05:29:30.021Z,-0.8
2023-11-25T05:30:30.021Z,-0.79
2023-11-25T05:31:30.063Z,-0.78
2023-11-25T05:32:30.037Z,-0.78
2023-11-25T05:33:30.016Z,-0.76
2023-11-25T05:34:30.078Z,-0.75
2023-11-25T05:35:30.037Z,-0.74
2023-11-25T05:36:30.009Z,-0.74
2023-11-25T05:37:30.020Z,-0.72
2023-11-25T05:38:30.024Z,-0.7
2023-11-25T05:39:30.015Z,-0.68
2023-11-25T05:40:30.054Z,-0.65
2023-11-25T05:41:30.023Z,-0.63
2023-11-25T05:42:30.010Z,-0.63
2023-11-25T05:43:30.090Z,-0.63
2023-11-25T05:44:30.021Z,-0.6
2023-11-25T05:45:30.012Z,-0.56
2023-11-25T05:46:30.122Z,-0.52
2023-11-25T05:47:30.082Z,-0.5
2023-11-25T05:48:30.015Z,-0.48
2023-11-25T05:49:30.046Z,-0.46
2023-11-25T05:50:30.008Z,-0.42
2023-11-25T05:51:30.016Z,-0.37
2023-11-25T05:52:30.052Z,-0.34
2023-11-25T05:53:30.018Z,-0.32
2023-11-25T05:54:30.016Z,-0.31
2023-11-25T05:55:30.027Z,-0.31
2023-11-25T05:56:30.019Z,-0.31
2023-11-25T05:57:30.018Z,-0.33
2023-11-25T05:58:30.029Z,-0.32
2023-11-25T05:59:30.022Z,-0.28
2023-11-25T06:00:30.022Z,-0.18
2023-11-25T06:01:30.046Z,0.06
2023-11-25T06:02:30.053Z,0.35
2023-11-25T06:03:30.109Z,0.46
2023-11-25T06:04:30.130Z,0.46
2023-11-25T06:05:30.302Z,0.45
2023-11-25T06:06:30.021Z,0.47
2023-11-25T06:07:30.054Z,0.64
2023-11-25T06:08:30.021Z,0.92
2023-11-25T06:09:30.024Z,1.25
2023-11-25T06:10:30.090Z,1.53
2023-11-25T06:11:30.019Z,1.76
2023-11-25T06:12:30.018Z,1.97
2023-11-25T06:13:30.078Z,2.11
2023-11-25T06:14:30.016Z,2.25
2023-11-25T06:15:30.023Z,2.46
2023-11-25T06:16:30.062Z,2.58
2023-11-25T06:17:30.051Z,2.57
2023-11-25T06:18:30.120Z,2.5
2023-11-25T06:19:30.076Z,2.43
2023-11-25T06:20:30.020Z,2.31
2023-11-25T06:21:30.035Z,2.11
2023-11-25T06:22:30.074Z,1.9
2023-11-25T06:23:30.051Z,1.71
2023-11-25T06:24:30.027Z,1.54
2023-11-25T06:25:30.088Z,1.37
2023-11-25T06:26:30.032Z,1.24
2023-11-25T06:27:30.021Z,1.12
2023-11-25T06:28:30.058Z,1.03
2023-11-25T06:29:30.022Z,1.09
2023-11-25T06:30:30.025Z,1.19
2023-11-25T06:31:30.049Z,1.2
2023-11-25T06:32:30.098Z,1.16
2023-11-25T06:33:30.052Z,1.15
2023-11-25T06:34:30.044Z,1.11
2023-11-25T06:35:30.031Z,1.03
2023-11-25T06:36:30.026Z,0.94
2023-11-25T06:37:30.036Z,0.87
2023-11-25T06:38:30.056Z,0.83
2023-11-25T06:39:30.089Z,0.85
2023-11-25T06:40:30.129Z,0.9
2023-11-25T06:41:30.031Z,0.91
2023-11-25T06:42:30.047Z,0.93
2023-11-25T06:43:30.050Z,0.97
2023-11-25T06:44:30.027Z,1.03
2023-11-25T06:45:30.041Z,1.03
2023-11-25T06:46:30.114Z,1.03
2023-11-25T06:47:30.130Z,1.03
2023-11-25T06:48:32.777Z,1.04
2023-11-25T06:49:31.239Z,1.08
2023-11-25T06:50:30.032Z,1.08
2023-11-25T06:51:30.053Z,1.08
2023-11-25T06:52:30.166Z,1.12
2023-11-25T06:53:30.037Z,1.18
2023-11-25T06:54:30.090Z,1.18
2023-11-25T06:55:30.041Z,1.18
2023-11-25T06:56:30.038Z,1.22
2023-11-25T06:57:30.054Z,1.26
2023-11-25T06:58:30.092Z,1.26
2023-11-25T06:59:30.034Z,1.24
2023-11-25T07:00:30.077Z,1.22
2023-11-25T07:01:30.107Z,1.24
2023-11-25T07:02:30.092Z,1.26
2023-11-25T07:03:30.088Z,1.26
2023-11-25T07:04:30.108Z,1.3
2023-11-25T07:05:30.030Z,1.36
2023-11-25T07:06:30.039Z,1.43
2023-11-25T07:07:30.096Z,1.49
2023-11-25T07:08:30.033Z,1.52
2023-11-25T07:09:30.071Z,1.54
2023-11-25T07:10:30.116Z,1.56
2023-11-25T07:11:30.068Z,1.56
2023-11-25T07:12:30.036Z,1.56
2023-11-25T07:13:30.076Z,1.56
2023-11-25T07:14:30.034Z,1.59
2023-11-25T07:15:30.036Z,1.63
2023-11-25T07:16:30.092Z,1.68
2023-11-25T07:17:30.132Z,1.72
2023-11-25T07:18:30.050Z,1.76
2023-11-25T07:19:30.088Z,1.8
2023-11-25T07:20:30.061Z,1.86
2023-11-25T07:21:30.039Z,1.9
2023-11-25T07:22:30.049Z,1.94
2023-11-25T07:23:30.038Z,1.95
2023-11-25T07:24:30.045Z,1.93
2023-11-25T07:25:30.066Z,1.89
2023-11-25T07:26:30.047Z,1.86
2023-11-25T07:27:30.034Z,1.87
2023-11-25T07:28:30.054Z,1.92
2023-11-25T07:29:30.036Z,1.98
2023-11-25T07:30:30.049Z,2.02
2023-11-25T07:31:30.127Z,2
2023-11-25T07:32:30.093Z,1.98
2023-11-25T07:33:30.037Z,1.99
2023-11-25T07:34:30.100Z,1.99
2023-11-25T07:35:30.041Z,1.97
2023-11-25T07:36:30.039Z,1.93
2023-11-25T07:37:30.070Z,1.89
2023-11-25T07:38:30.063Z,1.88
2023-11-25T07:39:30.044Z,1.87
2023-11-25T07:40:30.080Z,1.85
2023-11-25T07:41:30.045Z,1.86
2023-11-25T07:42:30.050Z,1.87
2023-11-25T07:43:30.195Z,1.89
2023-11-25T07:44:30.043Z,1.9
2023-11-25T07:45:30.051Z,1.9
2023-11-25T07:46:30.094Z,1.89
2023-11-25T07:47:30.199Z,1.89
2023-11-25T07:48:30.041Z,1.89
2023-11-25T07:49:30.081Z,1.88
2023-11-25T07:50:30.047Z,1.82
2023-11-25T07:51:30.043Z,1.8
2023-11-25T07:52:30.067Z,1.79
2023-11-25T07:53:30.050Z,1.8
2023-11-25T07:54:30.047Z,1.8
2023-11-25T07:55:30.160Z,1.81
2023-11-25T07:56:30.071Z,1.79
2023-11-25T07:57:30.051Z,1.78
2023-11-25T07:58:30.066Z,1.78
2023-11-25T07:59:30.048Z,1.79
2023-11-25T08:00:30.046Z,1.82
2023-11-25T08:01:30.109Z,1.84
2023-11-25T08:02:30.244Z,1.88
2023-11-25T08:03:30.116Z,1.92
2023-11-25T08:04:30.065Z,1.94
2023-11-25T08:05:30.075Z,1.93
2023-11-25T08:06:30.052Z,1.92
2023-11-25T08:07:30.065Z,1.91
2023-11-25T08:08:30.055Z,1.91
2023-11-25T08:09:30.057Z,1.9
2023-11-25T08:10:30.069Z,1.91
2023-11-25T08:11:30.056Z,1.94
2023-11-25T08:12:30.052Z,1.97
2023-11-25T08:13:30.095Z,1.98
2023-11-25T08:14:30.050Z,2.01
2023-11-25T08:15:30.051Z,2.04
2023-11-25T08:16:30.119Z,2.07
2023-11-25T08:17:30.073Z,2.1
2023-11-25T08:18:30.050Z,2.13
2023-11-25T08:19:30.075Z,2.18
2023-11-25T08:20:30.052Z,2.2
2023-11-25T08:21:30.055Z,2.13
2023-11-25T08:22:30.140Z,2.07
2023-11-25T08:23:30.053Z,2.02
2023-11-25T08:24:30.080Z,1.97
2023-11-25T08:25:30.109Z,1.9
2023-11-25T08:26:30.068Z,1.84
2023-11-25T08:27:30.093Z,1.8
2023-11-25T08:28:30.087Z,1.76
2023-11-25T08:29:30.065Z,1.73
2023-11-25T08:30:30.059Z,1.73
2023-11-25T08:31:30.112Z,1.74
2023-11-25T08:32:30.185Z,1.73
2023-11-25T08:33:30.069Z,1.71
2023-11-25T08:34:30.079Z,1.7
2023-11-25T08:35:30.056Z,1.71
2023-11-25T08:36:30.055Z,1.73
2023-11-25T08:37:30.134Z,1.74
2023-11-25T08:38:30.168Z,1.76
2023-11-25T08:39:30.058Z,1.79
2023-11-25T08:40:30.102Z,1.79
2023-11-25T08:41:30.068Z,1.77
2023-11-25T08:42:30.079Z,1.76
2023-11-25T08:43:30.065Z,1.77
2023-11-25T08:44:30.069Z,1.79
2023-11-25T08:45:30.093Z,1.81
2023-11-25T08:46:30.128Z,1.8
2023-11-25T08:47:30.067Z,1.76
2023-11-25T08:48:30.060Z,1.73
2023-11-25T08:49:30.073Z,1.71
2023-11-25T08:50:30.110Z,1.7
2023-11-25T08:51:30.062Z,1.7
2023-11-25T08:52:30.068Z,1.68
2023-11-25T08:53:30.064Z,1.67
2023-11-25T08:54:30.062Z,1.66
2023-11-25T08:55:30.109Z,1.64
2023-11-25T08:56:34.897Z,1.64
2023-11-25T08:57:31.596Z,1.64
2023-11-25T08:58:30.087Z,1.65
2023-11-25T08:59:30.064Z,1.65
2023-11-25T09:00:30.067Z,1.64
2023-11-25T09:01:30.157Z,1.63
2023-11-25T09:02:30.197Z,1.64
2023-11-25T09:03:30.172Z,1.64
2023-11-25T09:04:30.142Z,1.64
2023-11-25T09:05:30.138Z,1.66
2023-11-25T09:06:30.061Z,1.69
2023-11-25T09:07:30.100Z,1.73
2023-11-25T09:08:30.070Z,1.75
2023-11-25T09:09:30.076Z,1.77
2023-11-25T09:10:30.098Z,1.82
2023-11-25T09:11:30.070Z,1.87
2023-11-25T09:12:30.071Z,1.94
2023-11-25T09:13:32.968Z,2.03
2023-11-25T09:14:31.349Z,2.07
2023-11-25T09:15:31.046Z,2.08
2023-11-25T09:16:31.279Z,2.08
2023-11-25T09:17:30.093Z,2.09
2023-11-25T09:18:30.072Z,2.12
2023-11-25T09:19:30.097Z,2.16
2023-11-25T09:20:30.071Z,2.16
2023-11-25T09:21:30.078Z,2.09
2023-11-25T09:22:30.124Z,2.03
2023-11-25T09:23:30.073Z,2.01
2023-11-25T09:24:30.078Z,2
2023-11-25T09:25:30.124Z,1.98
2023-11-25T09:26:30.077Z,1.99
2023-11-25T09:27:30.073Z,1.97
2023-11-25T09:28:31.512Z,2.01
2023-11-25T09:29:30.079Z,2.11
2023-11-25T09:30:30.072Z,2.22
2023-11-25T09:31:30.098Z,2.26
2023-11-25T09:32:30.275Z,2.32
2023-11-25T09:33:30.079Z,2.37
2023-11-25T09:34:30.135Z,2.36
2023-11-25T09:35:30.081Z,2.32
2023-11-25T09:36:30.070Z,2.25
2023-11-25T09:37:30.118Z,2.19
2023-11-25T09:38:30.071Z,2.14
2023-11-25T09:39:30.078Z,2.07
2023-11-25T09:40:30.128Z,2
2023-11-25T09:41:30.090Z,1.97
2023-11-25T09:42:30.073Z,1.97
2023-11-25T09:43:30.107Z,1.97
2023-11-25T09:44:30.079Z,1.99
2023-11-25T09:45:30.185Z,2.01
2023-11-25T09:46:30.120Z,2.01
2023-11-25T09:47:30.098Z,2.01
2023-11-25T09:48:30.080Z,2.01
2023-11-25T09:49:30.109Z,2
2023-11-25T09:50:30.083Z,1.94
2023-11-25T09:51:30.076Z,1.87
2023-11-25T09:52:30.104Z,1.79
2023-11-25T09:53:30.078Z,1.74
2023-11-25T09:54:30.095Z,1.73
2023-11-25T09:55:30.139Z,1.73
2023-11-25T09:56:30.081Z,1.72
2023-11-25T09:57:30.098Z,1.72
2023-11-25T09:58:30.119Z,1.67
2023-11-25T09:59:30.079Z,1.64
2023-11-25T10:00:30.077Z,1.61
2023-11-25T10:01:30.177Z,1.61
2023-11-25T10:02:30.208Z,1.6
2023-11-25T10:03:30.154Z,1.57
2023-11-25T10:04:30.123Z,1.53
2023-11-25T10:05:31.946Z,1.51
2023-11-25T10:06:31.415Z,1.52
2023-11-25T10:07:30.106Z,1.51
2023-11-25T10:08:30.080Z,1.5
2023-11-25T10:09:30.080Z,1.51
2023-11-25T10:10:30.492Z,1.55
2023-11-25T10:11:30.081Z,1.61
2023-11-25T10:12:30.090Z,1.69
2023-11-25T10:13:30.119Z,1.76
2023-11-25T10:14:30.080Z,1.83
2023-11-25T10:15:30.079Z,1.89
2023-11-25T10:16:30.147Z,1.91
2023-11-25T10:17:30.122Z,1.91
2023-11-25T10:18:30.084Z,1.94
2023-11-25T10:19:30.185Z,1.98
2023-11-25T10:20:30.082Z,1.98
2023-11-25T10:21:30.083Z,1.97
2023-11-25T10:22:30.193Z,1.97
2023-11-25T10:23:30.082Z,1.96
2023-11-25T10:24:30.087Z,1.93
2023-11-25T10:25:30.115Z,1.92
2023-11-25T10:26:30.097Z,1.89
2023-11-25T10:27:30.090Z,1.85
2023-11-25T10:28:30.097Z,1.81
2023-11-25T10:29:30.104Z,1.77
2023-11-25T10:30:30.267Z,1.75
2023-11-25T10:31:30.109Z,1.76
2023-11-25T10:32:30.102Z,1.75
2023-11-25T10:33:30.146Z,1.76
2023-11-25T10:34:30.102Z,1.76
2023-11-25T10:35:30.091Z,1.77
2023-11-25T10:36:30.093Z,1.76
2023-11-25T10:37:30.101Z,1.76
2023-11-25T10:38:30.150Z,1.75
2023-11-25T10:39:30.096Z,1.76
2023-11-25T10:40:30.145Z,1.76
2023-11-25T10:41:30.098Z,1.75
2023-11-25T10:42:30.091Z,1.75
2023-11-25T10:43:30.109Z,1.75
2023-11-25T10:44:30.097Z,1.77
2023-11-25T10:45:30.099Z,1.78
2023-11-25T10:46:30.138Z,1.79
2023-11-25T10:47:30.127Z,1.79
2023-11-25T10:48:30.091Z,1.8
2023-11-25T10:49:30.119Z,1.78
2023-11-25T10:50:30.090Z,1.75
2023-11-25T10:51:30.092Z,1.7
2023-11-25T10:52:30.121Z,1.67
2023-11-25T10:53:30.101Z,1.66
2023-11-25T10:54:31.214Z,1.66
2023-11-25T10:55:30.299Z,1.69
2023-11-25T10:56:30.163Z,1.73
2023-11-25T10:57:30.093Z,1.76
2023-11-25T10:58:30.129Z,1.76
2023-11-25T10:59:30.104Z,1.76
2023-11-25T11:00:30.101Z,1.76
2023-11-25T11:01:30.191Z,1.75
2023-11-25T11:02:30.228Z,1.67
2023-11-25T11:03:30.122Z,1.6
2023-11-25T11:04:30.134Z,1.56
2023-11-25T11:05:30.122Z,1.54
2023-11-25T11:06:30.138Z,1.52
2023-11-25T11:07:30.147Z,1.51
2023-11-25T11:08:30.097Z,1.51
2023-11-25T11:09:30.113Z,1.54
2023-11-25T11:10:30.156Z,1.57
2023-11-25T11:11:30.118Z,1.56
2023-11-25T11:12:30.100Z,1.55
2023-11-25T11:13:30.132Z,1.54
2023-11-25T11:14:30.114Z,1.53
2023-11-25T11:15:30.115Z,1.53
2023-11-25T11:16:30.119Z,1.52
2023-11-25T11:17:30.168Z,1.52
2023-11-25T11:18:30.197Z,1.51
2023-11-25T11:19:30.318Z,1.5
2023-11-25T11:20:30.119Z,1.47
2023-11-25T11:21:30.102Z,1.46
2023-11-25T11:22:30.128Z,1.45
2023-11-25T11:23:30.138Z,1.45
2023-11-25T11:24:30.106Z,1.45
2023-11-25T11:25:30.214Z,1.43
2023-11-25T11:26:30.115Z,1.41
2023-11-25T11:27:30.101Z,1.4
2023-11-25T11:28:30.112Z,1.39
2023-11-25T11:29:30.194Z,1.39
2023-11-25T11:30:30.106Z,1.37
2023-11-25T11:31:30.186Z,1.37
2023-11-25T11:32:30.181Z,1.36
2023-11-25T11:33:30.120Z,1.32
2023-11-25T11:34:30.181Z,1.29
2023-11-25T11:35:30.112Z,1.26
2023-11-25T11:36:30.106Z,1.25
2023-11-25T11:37:30.129Z,1.25
2023-11-25T11:38:30.126Z,1.25
2023-11-25T11:39:30.107Z,1.24
2023-11-25T11:40:30.141Z,1.23
2023-11-25T11:41:30.167Z,1.22
2023-11-25T11:42:30.118Z,1.19
2023-11-25T11:43:30.255Z,1.18
2023-11-25T11:44:30.108Z,1.19
2023-11-25T11:45:30.112Z,1.2
2023-11-25T11:46:30.131Z,1.22
2023-11-25T11:47:30.177Z,1.23
2023-11-25T11:48:30.112Z,1.22
2023-11-25T11:49:30.131Z,1.19
2023-11-25T11:50:30.108Z,1.17
2023-11-25T11:51:30.110Z,1.16
2023-11-25T11:52:30.142Z,1.14
2023-11-25T11:53:30.124Z,1.1
2023-11-25T11:54:30.116Z,1.07
2023-11-25T11:55:30.132Z,1.05
2023-11-25T11:56:30.110Z,1.03
2023-11-25T11:57:30.145Z,1.01
2023-11-25T11:58:30.162Z,0.99
2023-11-25T11:59:30.108Z,0.98
2023-11-25T12:00:30.115Z,0.98
2023-11-25T12:01:30.204Z,0.97
2023-11-25T12:02:30.207Z,0.96
2023-11-25T12:03:30.198Z,0.95
2023-11-25T12:04:30.206Z,0.94
2023-11-25T12:05:30.156Z,0.93
2023-11-25T12:06:30.112Z,0.93
2023-11-25T12:07:30.144Z,0.92
2023-11-25T12:08:30.115Z,0.9
2023-11-25T12:09:30.115Z,0.89
2023-11-25T12:10:30.150Z,0.88
2023-11-25T12:11:30.128Z,0.87
2023-11-25T12:12:30.124Z,0.87
2023-11-25T12:13:30.214Z,0.86
2023-11-25T12:14:30.160Z,0.85
2023-11-25T12:15:30.117Z,0.84
2023-11-25T12:16:30.169Z,0.84
2023-11-25T12:17:30.224Z,0.83
2023-11-25T12:18:30.159Z,0.82
2023-11-25T12:19:30.125Z,0.82
2023-11-25T12:20:30.112Z,0.82
2023-11-25T12:21:30.117Z,0.81
2023-11-25T12:22:30.162Z,0.8
2023-11-25T12:23:41.115Z,0.79
2023-11-25T12:24:31.462Z,0.76
2023-11-25T12:25:30.138Z,0.76
2023-11-25T12:26:30.126Z,0.76
2023-11-25T12:27:30.117Z,0.77
2023-11-25T12:28:30.154Z,0.77
2023-11-25T12:29:30.120Z,0.76
2023-11-25T12:30:30.122Z,0.76
2023-11-25T12:31:30.250Z,0.74
2023-11-25T12:32:30.262Z,0.73
2023-11-25T12:33:30.239Z,0.71
2023-11-25T12:34:30.152Z,0.67
2023-11-25T12:35:30.132Z,0.63
2023-11-25T12:36:30.129Z,0.59
2023-11-25T12:37:30.144Z,0.56
2023-11-25T12:38:30.160Z,0.53
2023-11-25T12:39:30.163Z,0.48
2023-11-25T12:40:30.168Z,0.44
2023-11-25T12:41:30.121Z,0.42
2023-11-25T12:42:30.133Z,0.43
2023-11-25T12:43:30.179Z,0.44
2023-11-25T12:44:30.120Z,0.45
2023-11-25T12:45:30.133Z,0.43
2023-11-25T12:46:30.207Z,0.4
2023-11-25T12:47:30.205Z,0.38
2023-11-25T12:48:30.132Z,0.36
2023-11-25T12:49:30.161Z,0.35
2023-11-25T12:50:30.141Z,0.33
2023-11-25T12:51:30.123Z,0.32
2023-11-25T12:52:30.176Z,0.31
2023-11-25T12:53:30.137Z,0.31
2023-11-25T12:54:30.138Z,0.31
2023-11-25T12:55:30.141Z,0.32
2023-11-25T12:56:30.131Z,0.33
2023-11-25T12:57:30.124Z,0.33
2023-11-25T12:58:30.173Z,0.33
2023-11-25T12:59:30.123Z,0.3
2023-11-25T13:00:30.127Z,0.26
2023-11-25T13:01:30.284Z,0.23
2023-11-25T13:02:30.326Z,0.21
2023-11-25T13:03:30.432Z,0.2
2023-11-25T13:04:30.168Z,0.19
2023-11-25T13:05:30.128Z,0.18
2023-11-25T13:06:30.128Z,0.18
2023-11-25T13:07:30.157Z,0.2
2023-11-25T13:08:30.155Z,0.22
2023-11-25T13:09:30.139Z,0.26
2023-11-25T13:10:30.151Z,0.3
2023-11-25T13:11:30.128Z,0.32
2023-11-25T13:12:30.236Z,0.34
2023-11-25T13:13:30.704Z,0.36
2023-11-25T13:14:30.153Z,0.37